Time;durP1;ratioP1;P1;durP2;ratioP2;P2;SDS_P1;SDS_P2;PMS_P1;PMS_P2;Temp;Humidity;BMP_temperature;BMP_pressure;BME280_temperature;BME280_humidity;BME280_pressure;Samples;Min_cycle;Max_cycle;Signal;HPM_P1;HPM_P2
2021/06/16 04:31:55;;;;;;;5.10;4.50;;;16.20;99.90;;;;;;5273171;23;20508;-73
2021/06/16 04:34:21;;;;;;;6.70;5.07;;;16.20;99.90;;;;;;4938241;28;20425;-75
2021/06/16 04:36:47;;;;;;;6.43;5.30;;;16.40;99.90;;;;;;4937727;29;20181;-73
2021/06/16 04:39:13;;;;;;;5.93;5.10;;;16.40;99.90;;;;;;4936583;29;20416;-76
2021/06/16 04:41:39;;;;;;;14.43;5.40;;;16.50;99.90;;;;;;4924273;29;20225;-76
2021/06/16 04:44:05;;;;;;;6.43;5.60;;;16.60;99.90;;;;;;4917234;29;20410;-76
2021/06/16 04:46:30;;;;;;;7.33;4.77;;;16.60;99.90;;;;;;4917488;29;20219;-76
2021/06/16 04:48:56;;;;;;;6.67;4.90;;;16.80;99.90;;;;;;4918111;29;20437;-73
2021/06/16 04:51:22;;;;;;;5.30;4.37;;;16.90;99.90;;;;;;4919046;29;20203;-76
2021/06/16 04:53:47;;;;;;;4.77;4.37;;;17.00;99.90;;;;;;4916211;29;20190;-76
2021/06/16 04:56:13;;;;;;;7.10;4.50;;;17.10;99.90;;;;;;4917257;29;20186;-76
2021/06/16 04:58:39;;;;;;;7.53;5.50;;;17.30;99.90;;;;;;4915881;29;20237;-76
2021/06/16 05:01:04;;;;;;;9.90;4.87;;;17.40;99.90;;;;;;4917012;29;20636;-76
2021/06/16 05:03:30;;;;;;;8.10;4.73;;;17.70;99.90;;;;;;4917044;29;20261;-76
2021/06/16 05:05:55;;;;;;;8.10;4.93;;;18.00;99.90;;;;;;4917252;29;20183;-76
2021/06/16 05:08:21;;;;;;;4.90;4.40;;;18.30;99.90;;;;;;4916764;29;20178;-77
2021/06/16 05:10:47;;;;;;;5.83;4.03;;;18.70;99.90;;;;;;4917028;29;20285;-76
2021/06/16 05:13:12;;;;;;;8.20;5.33;;;18.90;99.90;;;;;;4919009;29;20282;-79
2021/06/16 05:15:38;;;;;;;5.47;4.97;;;19.40;99.90;;;;;;4919658;29;20233;-79
2021/06/16 05:18:07;;;;;;;7.00;6.30;;;19.90;99.90;;;;;;4919738;29;20178;-79
2021/06/16 05:20:33;;;;;;;4.73;4.23;;;20.20;99.90;;;;;;4920255;29;20557;-79
2021/06/16 05:22:59;;;;;;;11.77;5.70;;;20.70;99.90;;;;;;4919927;29;20482;-79
2021/06/16 05:25:24;;;;;;;10.33;4.73;;;21.10;99.90;;;;;;4919171;29;20194;-79
2021/06/16 05:27:50;;;;;;;4.80;3.40;;;21.60;99.90;;;;;;4920810;29;20792;-79
2021/06/16 05:30:19;;;;;;;10.43;5.10;;;21.90;99.90;;;;;;4919685;29;20422;-79
2021/06/16 05:32:44;;;;;;;4.67;3.97;;;22.20;99.90;;;;;;4917625;29;20189;-75
2021/06/16 05:35:11;;;;;;;5.47;4.30;;;22.40;99.90;;;;;;4918315;29;20418;-78
2021/06/16 05:37:37;;;;;;;7.50;4.50;;;22.70;99.90;;;;;;4919141;29;20552;-78
2021/06/16 05:40:07;;;;;;;7.33;4.17;;;22.90;99.90;;;;;;4917544;29;20596;-79
2021/06/16 05:42:32;;;;;;;6.63;5.13;;;23.10;99.90;;;;;;4917110;29;20885;-76
2021/06/16 05:44:58;;;;;;;4.17;3.70;;;23.30;99.90;;;;;;4919021;29;20426;-74
2021/06/16 05:47:24;;;;;;;7.67;4.40;;;23.40;99.90;;;;;;4919794;29;20196;-77
2021/06/16 05:49:50;;;;;;;6.07;5.47;;;23.60;99.90;;;;;;4917150;29;20685;-74
2021/06/16 05:52:15;;;;;;;8.77;5.67;;;23.80;99.90;;;;;;4917738;29;20210;-75
2021/06/16 05:54:41;;;;;;;7.40;6.03;;;23.80;99.90;;;;;;4916367;29;20257;-75
2021/06/16 05:57:07;;;;;;;6.50;5.67;;;24.00;99.90;;;;;;4916451;29;20190;-75
2021/06/16 05:59:33;;;;;;;11.27;5.00;;;24.40;99.90;;;;;;4916265;29;20196;-75
2021/06/16 06:02:00;;;;;;;10.30;5.50;;;24.60;99.90;;;;;;4916284;29;20210;-75
2021/06/16 06:04:25;;;;;;;8.70;4.53;;;24.90;99.90;;;;;;4915864;29;20920;-75
2021/06/16 06:06:51;;;;;;;8.87;4.93;;;25.10;99.90;;;;;;4916065;29;20509;-75
2021/06/16 06:09:17;;;;;;;7.97;4.87;;;25.20;99.90;;;;;;4915898;29;20265;-75
2021/06/16 06:11:42;;;;;;;6.53;4.97;;;25.40;99.90;;;;;;4915846;29;20218;-75
2021/06/16 06:14:08;;;;;;;6.83;4.53;;;25.60;99.90;;;;;;4915784;29;20190;-75
2021/06/16 06:16:34;;;;;;;4.60;4.07;;;25.80;99.90;;;;;;4916245;29;20190;-75
2021/06/16 06:19:00;;;;;;;4.83;4.40;;;26.10;99.90;;;;;;4914674;29;20189;-75
2021/06/16 06:21:32;;;;;;;16.03;4.57;;;26.20;99.90;;;;;;4915840;29;20312;-75
2021/06/16 06:24:02;;;;;;;4.23;3.90;;;26.40;99.90;;;;;;4915850;29;20638;-75
2021/06/16 06:26:28;;;;;;;3.80;3.50;;;26.50;99.90;;;;;;4915693;29;20788;-75
2021/06/16 06:28:54;;;;;;;6.23;4.53;;;26.60;99.90;;;;;;4914729;29;20414;-75
2021/06/16 06:31:19;;;;;;;16.53;8.20;;;26.70;99.90;;;;;;4914600;29;20453;-75
2021/06/16 06:33:45;;;;;;;7.23;4.10;;;26.80;99.90;;;;;;4914527;29;20441;-75
2021/06/16 06:36:11;;;;;;;12.27;5.10;;;27.00;99.90;;;;;;4916027;29;20178;-74
2021/06/16 06:38:36;;;;;;;11.43;4.10;;;27.00;99.90;;;;;;4915909;29;20182;-74
2021/06/16 06:41:02;;;;;;;7.90;4.27;;;27.20;99.90;;;;;;4915862;29;20210;-74
2021/06/16 06:43:27;;;;;;;7.10;4.43;;;27.50;99.90;;;;;;4915580;29;20182;-79
2021/06/16 06:45:53;;;;;;;7.60;4.30;;;27.70;99.90;;;;;;4945929;23;20274;-74
2021/06/16 06:48:19;;;;;;;7.97;5.07;;;28.00;99.90;;;;;;4989378;28;20179;-76
2021/06/16 06:50:44;;;;;;;15.87;4.90;;;28.20;99.90;;;;;;4987235;28;20207;-77
2021/06/16 06:53:10;;;;;;;7.63;4.20;;;28.30;99.90;;;;;;4989726;28;20218;-77
2021/06/16 06:55:36;;;;;;;4.77;4.07;;;28.60;99.90;;;;;;4991731;28;20175;-75
2021/06/16 06:58:02;;;;;;;8.47;3.63;;;28.50;99.90;;;;;;4994584;28;20640;-77
2021/06/16 07:00:28;;;;;;;4.77;3.50;;;28.30;99.90;;;;;;4994585;28;20410;-74
2021/06/16 07:02:56;;;;;;;8.73;3.30;;;28.60;99.90;;;;;;4993550;28;20922;-71
2021/06/16 07:05:21;;;;;;;8.63;3.30;;;28.90;99.90;;;;;;4994673;28;20259;-71
2021/06/16 07:07:47;;;;;;;5.47;3.50;;;28.80;99.90;;;;;;4994356;28;20497;-72
2021/06/16 07:10:13;;;;;;;7.70;3.60;;;29.00;99.90;;;;;;4994302;28;20171;-74
2021/06/16 07:12:39;;;;;;;6.53;4.27;;;29.10;99.90;;;;;;4993554;28;20361;-72
2021/06/16 07:15:06;;;;;;;6.87;3.63;;;29.10;99.90;;;;;;4994486;28;20437;-72
2021/06/16 07:17:33;;;;;;;6.40;3.90;;;29.00;99.90;;;;;;4993359;28;20426;-76
2021/06/16 07:19:59;;;;;;;7.97;4.43;;;29.20;99.90;;;;;;4994806;28;20798;-76
2021/06/16 07:22:24;;;;;;;6.33;3.80;;;29.40;99.90;;;;;;4978435;28;20474;-76
2021/06/16 07:24:50;;;;;;;11.60;4.80;;;29.50;99.90;;;;;;4974257;28;20181;-76
2021/06/16 07:27:15;;;;;;;4.80;4.30;;;29.70;99.90;;;;;;4974439;28;20183;-75
2021/06/16 07:29:41;;;;;;;7.70;4.37;;;30.10;99.90;;;;;;4974672;28;20179;-75
2021/06/16 07:32:08;;;;;;;13.97;4.40;;;30.00;99.90;;;;;;4974474;28;20255;-74
2021/06/16 07:34:33;;;;;;;7.67;4.40;;;30.00;99.90;;;;;;4973758;28;20180;-74
2021/06/16 07:36:59;;;;;;;8.43;4.93;;;30.00;99.90;;;;;;4974368;28;20415;-75
2021/06/16 07:39:25;;;;;;;10.77;5.20;;;30.20;99.90;;;;;;4974837;28;20181;-75
2021/06/16 07:41:50;;;;;;;9.50;3.97;;;30.20;99.90;;;;;;4974191;28;20211;-76
2021/06/16 07:44:16;;;;;;;13.30;4.93;;;30.40;99.90;;;;;;4972633;28;20428;-75
2021/06/16 07:46:42;;;;;;;4.83;3.90;;;30.60;99.90;;;;;;4974193;28;20191;-76
2021/06/16 07:49:07;;;;;;;7.80;4.53;;;30.60;99.90;;;;;;4974049;28;20235;-76
2021/06/16 07:51:33;;;;;;;5.20;4.20;;;30.50;99.90;;;;;;4973986;28;20700;-73
2021/06/16 07:53:58;;;;;;;6.60;3.80;;;30.70;99.90;;;;;;4973580;28;20180;-76
2021/06/16 07:56:24;;;;;;;5.20;4.53;;;30.80;99.90;;;;;;4974202;28;20180;-76
2021/06/16 07:58:51;;;;;;;6.73;3.67;;;30.80;99.90;;;;;;4973933;28;20176;-76
2021/06/16 08:01:19;;;;;;;9.60;3.83;;;30.80;99.90;;;;;;4973789;28;20340;-75
2021/06/16 08:03:44;;;;;;;12.70;5.00;;;30.90;99.90;;;;;;4973337;28;20912;-75
2021/06/16 08:06:10;;;;;;;9.23;4.03;;;30.90;99.90;;;;;;4973213;28;20478;-76
2021/06/16 08:08:36;;;;;;;4.73;3.40;;;31.10;99.90;;;;;;4972885;28;20172;-75
2021/06/16 08:11:02;;;;;;;13.60;3.57;;;31.40;99.90;;;;;;4973966;28;20684;-74
2021/06/16 08:13:28;;;;;;;4.20;3.80;;;31.50;99.90;;;;;;4973313;28;20176;-75
2021/06/16 08:15:54;;;;;;;9.73;4.07;;;31.60;99.90;;;;;;4972961;28;20431;-74
2021/06/16 08:18:19;;;;;;;6.70;3.90;;;31.90;99.90;;;;;;4974061;28;20416;-75
2021/06/16 08:20:45;;;;;;;6.97;4.10;;;32.10;99.90;;;;;;4973263;28;20309;-76
2021/06/16 08:23:11;;;;;;;13.07;3.60;;;32.20;99.90;;;;;;4973224;28;20192;-75
2021/06/16 08:25:37;;;;;;;11.30;3.90;;;32.50;99.90;;;;;;4973812;28;20466;-74
2021/06/16 08:28:04;;;;;;;7.40;4.10;;;32.50;99.90;;;;;;4974148;28;20168;-75
2021/06/16 08:30:29;;;;;;;6.70;3.97;;;32.30;99.90;;;;;;4972032;28;20419;-76
2021/06/16 08:32:55;;;;;;;5.93;3.37;;;32.10;99.90;;;;;;4971238;28;20951;-76
2021/06/16 08:35:21;;;;;;;6.67;4.57;;;32.20;99.90;;;;;;4973633;28;20180;-76
2021/06/16 08:37:47;;;;;;;4.23;3.40;;;32.30;99.90;;;;;;4973500;28;20618;-76
2021/06/16 08:40:14;;;;;;;5.47;3.20;;;32.50;99.90;;;;;;4973463;28;20539;-75
2021/06/16 08:42:40;;;;;;;5.70;3.53;;;32.60;99.90;;;;;;4972591;28;20550;-75
2021/06/16 08:45:08;;;;;;;7.47;3.73;;;32.60;99.90;;;;;;4971723;28;20415;-75
2021/06/16 08:47:34;;;;;;;10.00;3.27;;;33.00;98.70;;;;;;4971909;28;20530;-75
2021/06/16 08:50:07;;;;;;;6.80;2.97;;;33.30;99.70;;;;;;4973173;28;20408;-75
2021/06/16 08:52:32;;;;;;;6.53;3.30;;;33.50;99.30;;;;;;4972518;28;20446;-76
2021/06/16 08:55:03;;;;;;;8.07;4.10;;;33.50;97.80;;;;;;4972599;28;20416;-75
2021/06/16 08:57:28;;;;;;;7.70;3.57;;;33.50;97.50;;;;;;4965373;28;20681;-75
2021/06/16 08:59:54;;;;;;;5.47;3.80;;;33.70;96.80;;;;;;4963289;28;20443;-74
2021/06/16 09:02:20;;;;;;;7.00;3.43;;;33.50;97.40;;;;;;4971449;28;20230;-75
2021/06/16 09:04:47;;;;;;;4.87;3.60;;;33.70;97.60;;;;;;4972341;28;20238;-75
2021/06/16 09:07:20;;;;;;;6.93;3.07;;;33.50;95.80;;;;;;4972889;28;20430;-75
2021/06/16 09:09:49;;;;;;;6.10;3.10;;;33.50;96.20;;;;;;4972809;28;20917;-75
2021/06/16 09:12:19;;;;;;;5.30;3.30;;;33.70;95.80;;;;;;4972424;28;20955;-75
2021/06/16 09:14:52;;;;;;;4.73;3.13;;;34.10;94.70;;;;;;4972253;28;20419;-76
2021/06/16 09:17:23;;;;;;;6.43;3.17;;;34.20;94.70;;;;;;4971279;28;20492;-75
2021/06/16 09:19:54;;;;;;;8.23;3.50;;;34.40;94.00;;;;;;4972725;28;20889;-76
2021/06/16 09:22:34;;;;;;;3.53;3.10;;;34.70;93.90;;;;;;4971737;28;20463;-76
2021/06/16 09:25:03;;;;;;;3.23;3.03;;;34.70;93.80;;;;;;4972219;28;20429;-75
2021/06/16 09:27:48;;;;;;;6.60;4.03;;;35.00;93.40;;;;;;4972616;28;21493;-75
2021/06/16 09:30:19;;;;;;;6.83;2.90;;;35.10;92.60;;;;;;4972700;28;20415;-75
2021/06/16 09:32:46;;;;;;;5.97;3.00;;;35.30;91.80;;;;;;4971827;28;20469;-76
2021/06/16 09:35:28;;;;;;;7.23;3.43;;;34.80;91.20;;;;;;4971901;28;20921;-76
2021/06/16 09:37:54;;;;;;;7.07;3.40;;;34.90;92.00;;;;;;4971266;28;20786;-75
2021/06/16 09:40:30;;;;;;;9.80;3.00;;;34.80;92.50;;;;;;4972547;28;20424;-76
2021/06/16 09:43:09;;;;;;;6.60;2.80;;;35.50;91.90;;;;;;4971265;28;20490;-76
2021/06/16 09:45:37;;;;;;;5.57;3.30;;;36.10;91.40;;;;;;4971837;28;20946;-75
2021/06/16 09:48:19;;;;;;;4.30;2.87;;;36.10;90.10;;;;;;4972446;28;20416;-75
2021/06/16 09:50:45;;;;;;;4.77;3.40;;;36.40;91.60;;;;;;4972252;28;20431;-76
2021/06/16 09:53:10;;;;;;;5.17;2.83;;;37.20;88.30;;;;;;4971716;28;20780;-76
2021/06/16 09:55:36;;;;;;;4.40;3.03;;;37.40;86.40;;;;;;4971234;28;20412;-76
2021/06/16 09:58:09;;;;;;;8.60;2.70;;;37.30;85.80;;;;;;4972249;28;20511;-77
2021/06/16 10:00:42;;;;;;;3.33;2.90;;;37.40;85.50;;;;;;4970362;28;20518;-76
2021/06/16 10:03:21;;;;;;;5.47;2.93;;;37.20;84.90;;;;;;4971324;28;20431;-76
2021/06/16 10:06:10;;;;;;;4.23;2.17;;;36.70;85.70;;;;;;4971278;28;20411;-76
2021/06/16 10:08:43;;;;;;;2.97;2.67;;;36.40;84.40;;;;;;4971672;28;20959;-76
2021/06/16 10:11:15;;;;;;;6.27;2.87;;;36.60;83.30;;;;;;4972018;28;20971;-76
2021/06/16 10:13:42;;;;;;;3.23;3.03;;;36.30;81.70;;;;;;4971185;28;20465;-76
2021/06/16 10:16:08;;;;;;;3.63;2.90;;;36.00;83.10;;;;;;4971727;28;20419;-76
2021/06/16 10:18:43;;;;;;;3.30;2.90;;;36.20;86.60;;;;;;4971515;28;20415;-75
2021/06/16 10:21:13;;;;;;;3.67;2.63;;;36.80;84.00;;;;;;4971426;28;20855;-76
2021/06/16 10:23:39;;;;;;;3.17;2.43;;;37.00;81.10;;;;;;4971411;28;20790;-75
2021/06/16 10:26:08;;;;;;;2.03;1.93;;;37.10;79.20;;;;;;4971628;28;20415;-76
2021/06/16 10:28:47;;;;;;;2.83;2.50;;;36.90;77.20;;;;;;4971205;28;20428;-74
2021/06/16 10:31:14;;;;;;;7.37;2.33;;;36.50;73.00;;;;;;4970870;28;20450;-75
2021/06/16 10:33:42;;;;;;;4.97;2.17;;;36.30;76.30;;;;;;4969755;28;20570;-75
2021/06/16 10:36:07;;;;;;;5.60;2.17;;;36.80;74.60;;;;;;4970979;28;20786;-75
2021/06/16 10:38:33;;;;;;;3.23;2.63;;;36.30;75.10;;;;;;4969809;28;20419;-75
2021/06/16 10:40:59;;;;;;;5.07;2.70;;;36.10;75.40;;;;;;4969632;28;20425;-75
2021/06/16 10:43:35;;;;;;;3.57;2.37;;;36.60;74.90;;;;;;4970426;28;20172;-76
2021/06/16 10:46:11;;;;;;;2.50;2.30;;;37.10;73.10;;;;;;4970920;28;20427;-77
2021/06/16 10:48:58;;;;;;;3.73;2.90;;;37.00;74.30;;;;;;4971484;28;20473;-74
2021/06/16 10:51:30;;;;;;;3.90;3.60;;;36.50;72.30;;;;;;4971164;28;20435;-76
2021/06/16 10:54:21;;;;;;;4.37;2.70;;;36.10;74.00;;;;;;4970177;28;20486;-74
2021/06/16 10:56:54;;;;;;;5.50;3.20;;;35.80;75.60;;;;;;4971336;28;20863;-76
2021/06/16 10:59:41;;;;;;;9.03;3.77;;;36.00;75.90;;;;;;4971240;28;20482;-77
2021/06/16 11:02:07;;;;;;;3.63;2.70;;;35.90;75.10;;;;;;4970945;28;20883;-76
2021/06/16 11:04:33;;;;;;;3.63;2.60;;;35.90;76.00;;;;;;4970458;28;20462;-74
2021/06/16 11:06:59;;;;;;;4.40;3.17;;;35.70;76.50;;;;;;4970817;28;20443;-76
2021/06/16 11:09:54;;;;;;;6.87;3.37;;;35.80;76.00;;;;;;4969803;28;20443;-74
2021/06/16 11:12:39;;;;;;;6.63;3.47;;;35.60;75.50;;;;;;4970207;28;20208;-77
2021/06/16 11:15:11;;;;;;;6.80;3.20;;;35.70;79.00;;;;;;4970585;28;20463;-76
2021/06/16 11:17:42;;;;;;;5.97;2.60;;;35.80;77.00;;;;;;4971229;28;20984;-76
2021/06/16 11:20:25;;;;;;;3.00;2.80;;;36.00;75.70;;;;;;4971259;28;20502;-76
2021/06/16 11:23:03;;;;;;;3.37;2.47;;;35.80;75.30;;;;;;4970195;28;20597;-74
2021/06/16 11:25:34;;;;;;;3.60;3.40;;;36.00;74.00;;;;;;4970648;28;20506;-76
2021/06/16 11:28:20;;;;;;;2.47;2.20;;;35.90;74.40;;;;;;4971103;28;20415;-76
2021/06/16 11:30:55;;;;;;;3.60;2.27;;;35.30;77.00;;;;;;4969786;28;20438;-75
2021/06/16 11:35:52;;;;;;;3.27;2.97;;;35.30;76.80;;;;;;4970546;28;20834;-75
2021/06/16 11:38:20;;;;;;;2.53;2.33;;;35.10;78.40;;;;;;4970803;28;20184;-76
2021/06/16 11:41:17;;;;;;;4.10;2.67;;;34.80;75.90;;;;;;4970768;28;20588;-75
2021/06/16 11:43:55;;;;;;;2.90;2.57;;;34.60;76.00;;;;;;4969066;28;20427;-74
2021/06/16 11:46:27;;;;;;;3.10;2.83;;;34.60;78.10;;;;;;4974160;28;20493;-75
2021/06/16 11:49:08;;;;;;;3.20;3.00;;;34.90;75.60;;;;;;4973317;28;20420;-75
2021/06/16 11:51:45;;;;;;;3.20;2.90;;;34.60;78.10;;;;;;4975754;28;20443;-74
2021/06/16 11:54:24;;;;;;;2.97;2.77;;;34.60;75.90;;;;;;4973846;28;20411;-75
2021/06/16 11:57:00;;;;;;;2.50;2.30;;;34.70;77.60;;;;;;4973712;28;20937;-75
2021/06/16 11:59:29;;;;;;;2.60;2.40;;;34.60;77.40;;;;;;4974238;28;20482;-75
2021/06/16 12:02:08;;;;;;;3.13;2.90;;;34.60;78.00;;;;;;4974253;28;20466;-75
2021/06/16 12:04:43;;;;;;;3.50;2.80;;;34.40;77.50;;;;;;4973287;28;20422;-74
2021/06/16 12:07:08;;;;;;;3.93;2.63;;;34.20;74.80;;;;;;4974000;28;20415;-75
2021/06/16 12:09:45;;;;;;;2.87;2.67;;;33.90;76.30;;;;;;4973405;28;20927;-74
2021/06/16 12:12:10;;;;;;;2.77;2.20;;;33.60;78.90;;;;;;4973909;28;20199;-76
2021/06/16 12:14:36;;;;;;;3.80;3.40;;;33.70;77.90;;;;;;4973256;28;20437;-75
2021/06/16 12:17:04;;;;;;;8.20;2.93;;;33.60;77.70;;;;;;4973970;28;20591;-76
2021/06/16 12:19:37;;;;;;;2.80;2.70;;;33.60;77.70;;;;;;4974047;28;20209;-75
2021/06/16 12:22:08;;;;;;;2.67;2.43;;;33.60;78.40;;;;;;4971822;28;20466;-75
2021/06/16 12:24:41;;;;;;;3.13;2.37;;;33.60;80.30;;;;;;4972856;28;20841;-74
2021/06/16 12:27:18;;;;;;;3.00;2.70;;;33.50;77.90;;;;;;4973666;28;20411;-74
2021/06/16 12:29:44;;;;;;;2.97;2.77;;;33.70;79.80;;;;;;4972637;28;20486;-75
2021/06/16 12:32:10;;;;;;;2.53;2.40;;;33.50;79.20;;;;;;4973069;28;20435;-75
2021/06/16 12:34:56;;;;;;;3.40;3.10;;;33.40;80.30;;;;;;4972761;28;20789;-74
2021/06/16 12:37:21;;;;;;;2.53;2.23;;;33.20;80.00;;;;;;4973526;28;20407;-73
2021/06/16 12:39:55;;;;;;;3.27;2.40;;;33.20;80.10;;;;;;4974884;28;20905;-73
2021/06/16 12:42:21;;;;;;;2.20;2.10;;;33.50;80.90;;;;;;4972808;28;20199;-73
2021/06/16 12:44:47;;;;;;;3.70;2.30;;;33.40;78.80;;;;;;4972654;28;20474;-73
2021/06/16 12:47:19;;;;;;;3.60;3.30;;;33.40;79.10;;;;;;4973235;28;20743;-73
2021/06/16 12:49:50;;;;;;;7.80;2.60;;;33.30;81.20;;;;;;4973316;28;20184;-73
2021/06/16 12:52:28;;;;;;;6.40;3.17;;;33.30;79.80;;;;;;4972363;28;20452;-73
2021/06/16 12:54:54;;;;;;;3.70;3.50;;;33.10;79.90;;;;;;4972099;28;20494;-75
2021/06/16 12:57:21;;;;;;;3.03;2.80;;;32.90;79.70;;;;;;4973201;28;21012;-75
2021/06/16 12:59:52;;;;;;;3.33;3.03;;;32.90;80.20;;;;;;4972215;28;20254;-75
2021/06/16 13:02:27;;;;;;;2.63;2.43;;;33.00;81.60;;;;;;4971588;28;20467;-75
2021/06/16 13:05:00;;;;;;;5.40;2.73;;;32.90;82.10;;;;;;4972238;28;20783;-74
2021/06/16 13:07:46;;;;;;;3.83;2.80;;;32.50;81.50;;;;;;4973357;28;20415;-74
2021/06/16 13:10:24;;;;;;;3.20;2.90;;;32.60;84.20;;;;;;4972640;28;20963;-74
2021/06/16 13:13:14;;;;;;;7.07;3.00;;;32.60;84.60;;;;;;4971945;28;20439;-74
2021/06/16 13:15:41;;;;;;;18.40;4.10;;;32.80;83.30;;;;;;4972834;28;20478;-74
2021/06/16 13:18:09;;;;;;;3.87;3.07;;;32.80;81.10;;;;;;4972230;28;20847;-74
2021/06/16 13:20:40;;;;;;;3.77;3.00;;;32.70;80.30;;;;;;4972307;28;20924;-74
2021/06/16 13:23:18;;;;;;;2.90;2.70;;;32.60;81.60;;;;;;4971744;28;20800;-73
2021/06/16 13:25:45;;;;;;;5.30;2.80;;;32.60;81.60;;;;;;4972675;28;20415;-74
2021/06/16 13:28:25;;;;;;;3.37;3.17;;;32.60;82.00;;;;;;4972462;28;20787;-74
2021/06/16 13:30:53;;;;;;;5.20;3.30;;;32.40;80.90;;;;;;4971960;28;20434;-74
2021/06/16 13:33:40;;;;;;;5.50;2.90;;;32.50;82.20;;;;;;4954554;28;20415;-74
2021/06/16 13:36:09;;;;;;;3.20;3.00;;;32.40;81.20;;;;;;4955099;28;20510;-73
2021/06/16 13:38:39;;;;;;;3.83;3.53;;;32.40;80.70;;;;;;4954723;28;20423;-74
2021/06/16 13:41:05;;;;;;;5.90;3.47;;;32.60;81.60;;;;;;4969766;28;20463;-74
2021/06/16 13:43:30;;;;;;;6.63;2.67;;;32.70;80.10;;;;;;4971785;28;20833;-74
2021/06/16 13:45:56;;;;;;;3.40;3.20;;;32.50;80.90;;;;;;4972214;28;20188;-74
2021/06/16 13:48:21;;;;;;;6.43;3.20;;;32.50;79.70;;;;;;4971180;28;20199;-74
2021/06/16 13:50:47;;;;;;;3.17;2.93;;;32.40;81.40;;;;;;4971879;28;20618;-74
2021/06/16 13:53:14;;;;;;;3.70;3.03;;;32.30;81.60;;;;;;4970823;28;20180;-75
2021/06/16 13:55:40;;;;;;;8.70;5.50;;;32.20;80.80;;;;;;4972081;28;20924;-73
2021/06/16 13:58:06;;;;;;;5.40;3.27;;;32.30;80.40;;;;;;4972229;28;20792;-73
2021/06/16 14:00:34;;;;;;;5.45;3.00;;;32.00;80.70;;;;;;4971802;28;20416;-73
2021/06/16 14:03:00;;;;;;;3.50;3.20;;;31.80;80.80;;;;;;4971260;28;20408;-74
2021/06/16 14:05:26;;;;;;;3.17;2.97;;;31.80;81.40;;;;;;4970723;28;20428;-74
2021/06/16 14:07:51;;;;;;;3.70;3.30;;;31.70;81.30;;;;;;4971736;28;20416;-74
2021/06/16 14:10:17;;;;;;;4.30;3.80;;;31.70;81.40;;;;;;4971845;28;20203;-74
2021/06/16 14:12:43;;;;;;;3.10;2.90;;;31.60;81.70;;;;;;4969941;28;20199;-73
2021/06/16 14:15:09;;;;;;;3.47;2.93;;;31.40;80.60;;;;;;4972161;28;20253;-74
2021/06/16 14:17:36;;;;;;;4.33;3.77;;;31.30;82.70;;;;;;4971150;28;20255;-74
2021/06/16 14:20:06;;;;;;;4.00;3.20;;;31.20;83.00;;;;;;4970626;28;20420;-74
2021/06/16 14:22:32;;;;;;;4.10;3.57;;;31.10;83.90;;;;;;4971058;28;20491;-74
2021/06/16 14:24:57;;;;;;;5.00;4.60;;;31.10;84.60;;;;;;4971008;28;20911;-74
2021/06/16 14:27:23;;;;;;;8.33;3.47;;;31.20;83.60;;;;;;4971290;28;20188;-75
2021/06/16 14:29:49;;;;;;;3.77;3.37;;;31.10;84.10;;;;;;4970151;28;20254;-75
2021/06/16 14:32:14;;;;;;;3.30;2.97;;;31.10;83.80;;;;;;4971286;28;20208;-73
2021/06/16 14:34:40;;;;;;;3.63;3.10;;;31.10;84.20;;;;;;4984460;28;20190;-75
2021/06/16 14:37:05;;;;;;;4.07;3.70;;;31.10;83.30;;;;;;4991072;28;20187;-74
2021/06/16 14:39:31;;;;;;;3.23;3.03;;;31.20;84.40;;;;;;4989692;28;20553;-74
2021/06/16 14:41:56;;;;;;;4.57;4.17;;;31.30;84.40;;;;;;4990244;28;20871;-74
2021/06/16 14:44:22;;;;;;;3.43;3.13;;;31.40;83.10;;;;;;4989159;28;20175;-76
2021/06/16 14:46:48;;;;;;;8.47;3.00;;;31.40;83.10;;;;;;4990727;28;20191;-74
2021/06/16 14:49:13;;;;;;;3.37;3.07;;;31.40;84.20;;;;;;4990495;28;20644;-74
2021/06/16 14:51:39;;;;;;;7.63;3.23;;;31.50;83.90;;;;;;4990431;28;20210;-74
2021/06/16 14:54:04;;;;;;;3.37;3.17;;;31.40;83.40;;;;;;4989354;28;20242;-74
2021/06/16 14:56:30;;;;;;;3.23;2.93;;;31.30;82.30;;;;;;4990182;28;20258;-74
2021/06/16 14:58:56;;;;;;;3.73;3.23;;;31.30;82.90;;;;;;4989913;28;20570;-74
2021/06/16 15:01:21;;;;;;;4.40;3.57;;;31.30;82.90;;;;;;4990282;28;20219;-74
2021/06/16 15:03:49;;;;;;;3.93;3.00;;;31.30;81.60;;;;;;4989933;28;20187;-75
2021/06/16 15:06:15;;;;;;;3.23;2.93;;;31.20;83.70;;;;;;4987739;28;20190;-74
2021/06/16 15:08:41;;;;;;;3.23;2.93;;;31.20;82.30;;;;;;4990634;28;20832;-73
2021/06/16 15:11:06;;;;;;;2.60;2.13;;;31.20;82.10;;;;;;4989870;28;20529;-75
2021/06/16 15:13:32;;;;;;;5.63;3.50;;;31.30;82.10;;;;;;4990058;28;20214;-74
2021/06/16 15:15:57;;;;;;;4.30;3.50;;;31.30;83.00;;;;;;4990704;28;20191;-74
2021/06/16 15:18:23;;;;;;;3.30;3.10;;;31.30;82.60;;;;;;4993765;28;20322;-74
2021/06/16 15:20:48;;;;;;;2.77;2.63;;;31.30;82.80;;;;;;4994038;28;20246;-75
2021/06/16 15:23:14;;;;;;;4.30;3.07;;;31.20;81.90;;;;;;4993476;28;20261;-74
2021/06/16 15:25:41;;;;;;;3.60;3.30;;;31.10;81.40;;;;;;4994294;28;20250;-73
2021/06/16 15:28:07;;;;;;;3.03;2.73;;;31.10;81.70;;;;;;4993619;28;20477;-73
2021/06/16 15:30:35;;;;;;;3.10;2.80;;;31.10;82.90;;;;;;4993994;28;20410;-73
2021/06/16 15:33:00;;;;;;;3.20;3.00;;;31.10;83.00;;;;;;4993549;28;20415;-73
2021/06/16 15:35:26;;;;;;;5.23;3.50;;;31.10;82.50;;;;;;4987542;28;20411;-74
2021/06/16 15:37:52;;;;;;;2.80;2.60;;;31.10;82.80;;;;;;4974190;28;20231;-74
2021/06/16 15:40:20;;;;;;;4.30;3.73;;;31.00;82.30;;;;;;4974309;28;20633;-74
2021/06/16 15:42:47;;;;;;;3.30;3.03;;;31.00;82.30;;;;;;4971260;28;20492;-74
2021/06/16 15:45:14;;;;;;;3.07;2.70;;;30.90;82.00;;;;;;4972163;28;20430;-74
2021/06/16 15:47:40;;;;;;;4.33;2.80;;;30.90;82.40;;;;;;4970789;28;20469;-73
2021/06/16 15:50:06;;;;;;;3.30;3.00;;;30.80;81.40;;;;;;4982530;28;21097;-74
2021/06/16 15:52:32;;;;;;;4.20;3.03;;;30.90;82.00;;;;;;4989723;28;20238;-73
2021/06/16 15:55:00;;;;;;;2.80;2.70;;;31.00;82.70;;;;;;4988976;28;20516;-73
2021/06/16 15:57:25;;;;;;;3.20;3.00;;;31.00;82.10;;;;;;4989598;28;20195;-74
2021/06/16 15:59:51;;;;;;;4.93;2.90;;;30.90;82.60;;;;;;4989284;28;20853;-74
2021/06/16 16:02:17;;;;;;;4.40;4.10;;;30.90;82.60;;;;;;4956224;28;20223;-74
2021/06/16 16:04:42;;;;;;;5.23;3.60;;;30.80;83.00;;;;;;4970527;28;20188;-74
2021/06/16 16:07:08;;;;;;;3.30;3.00;;;30.80;84.40;;;;;;4970940;28;20968;-74
2021/06/16 16:09:35;;;;;;;8.80;3.73;;;30.80;82.40;;;;;;4971088;28;20197;-73
2021/06/16 16:12:01;;;;;;;4.93;3.60;;;30.90;83.10;;;;;;4971756;28;20696;-73
2021/06/16 16:14:26;;;;;;;4.30;3.23;;;30.90;82.70;;;;;;4970837;28;20432;-74
2021/06/16 16:16:52;;;;;;;3.63;3.33;;;30.80;83.50;;;;;;4970870;28;20218;-75
2021/06/16 16:19:17;;;;;;;3.40;3.20;;;30.80;84.00;;;;;;4970866;28;20188;-75
2021/06/16 16:21:43;;;;;;;3.80;3.10;;;30.80;84.40;;;;;;4970937;28;20216;-75
2021/06/16 16:24:09;;;;;;;3.67;3.37;;;30.90;84.70;;;;;;4969862;28;20195;-75
2021/06/16 16:26:34;;;;;;;5.73;3.00;;;30.90;84.70;;;;;;4972701;28;20184;-73
2021/06/16 16:29:00;;;;;;;3.53;3.30;;;30.90;83.90;;;;;;4982908;28;20456;-65
2021/06/16 16:31:26;;;;;;;3.53;3.23;;;30.80;84.50;;;;;;4976320;28;20240;-65
2021/06/16 16:33:51;;;;;;;3.83;3.10;;;30.70;84.20;;;;;;4971701;28;20176;-66
2021/06/16 16:36:17;;;;;;;3.53;3.23;;;30.70;83.20;;;;;;4972168;28;20238;-65
2021/06/16 16:38:44;;;;;;;3.57;3.27;;;30.70;83.80;;;;;;4971015;28;20219;-65
2021/06/16 16:41:10;;;;;;;5.10;2.97;;;30.60;83.90;;;;;;4970375;28;20461;-65
2021/06/16 16:43:35;;;;;;;5.63;3.13;;;30.60;83.50;;;;;;4969314;28;20415;-64
2021/06/16 16:46:01;;;;;;;3.87;3.57;;;30.60;83.10;;;;;;4969790;28;20437;-65
2021/06/16 16:48:27;;;;;;;3.73;3.37;;;30.60;84.40;;;;;;4969175;28;20672;-65
2021/06/16 16:50:53;;;;;;;6.03;4.97;;;30.50;83.70;;;;;;4980089;28;20207;-66
2021/06/16 16:53:19;;;;;;;3.60;3.30;;;30.50;83.90;;;;;;4985231;28;20183;-66
2021/06/16 16:55:45;;;;;;;7.30;3.53;;;30.50;83.30;;;;;;4984895;28;20222;-65
2021/06/16 16:58:10;;;;;;;3.30;3.00;;;30.40;83.50;;;;;;4988730;28;20259;-66
2021/06/16 17:00:36;;;;;;;4.03;3.83;;;30.40;83.60;;;;;;4987905;28;20187;-65
2021/06/16 17:03:01;;;;;;;6.73;3.90;;;30.30;84.00;;;;;;4970814;28;20216;-65
2021/06/16 17:05:27;;;;;;;3.37;3.07;;;30.40;83.80;;;;;;4969627;28;20184;-65
2021/06/16 17:07:53;;;;;;;3.63;3.33;;;30.40;82.70;;;;;;4970777;28;20207;-65
2021/06/16 17:10:19;;;;;;;4.23;2.90;;;30.40;82.70;;;;;;4969646;28;20870;-65
2021/06/16 17:12:48;;;;;;;5.80;3.30;;;30.30;82.20;;;;;;4968744;28;20255;-65
2021/06/16 17:15:16;;;;;;;4.27;3.20;;;30.20;83.10;;;;;;4970228;28;20431;-65
2021/06/16 17:17:43;;;;;;;7.40;6.10;;;30.20;82.20;;;;;;4969730;28;21174;-65
2021/06/16 17:20:10;;;;;;;3.37;2.87;;;30.20;82.50;;;;;;4969570;28;20884;-65
2021/06/16 17:22:38;;;;;;;3.50;3.30;;;30.20;84.00;;;;;;4968526;28;20494;-65
2021/06/16 17:25:14;;;;;;;3.70;3.30;;;30.20;82.00;;;;;;4968705;28;20433;-65